sensor_id;sensor_type;location;lat;lon;timestamp;P1;durP1;ratioP1;P2;durP2;ratioP2
26953;SDS011;14508;50.924;11.600;2023-11-21T00:00:09;6.07;;;1.40;;
26953;SDS011;14508;50.924;11.600;2023-11-21T00:02:39;2.92;;;0.90;;
26953;SDS011;14508;50.924;11.600;2023-11-21T00:05:08;1.40;;;0.68;;
26953;SDS011;14508;50.924;11.600;2023-11-21T00:07:38;6.18;;;0.98;;
26953;SDS011;14508;50.924;11.600;2023-11-21T00:10:07;4.20;;;1.02;;
26953;SDS011;14508;50.924;11.600;2023-11-21T00:12:37;1.27;;;0.85;;
26953;SDS011;14508;50.924;11.600;2023-11-21T00:15:10;2.28;;;0.90;;
26953;SDS011;14508;50.924;11.600;2023-11-21T00:17:38;6.40;;;1.23;;
26953;SDS011;14508;50.924;11.600;2023-11-21T00:20:07;0.77;;;0.68;;
26953;SDS011;14508;50.924;11.600;2023-11-21T00:22:38;3.13;;;0.75;;
26953;SDS011;14508;50.924;11.600;2023-11-21T00:25:07;4.93;;;0.70;;
26953;SDS011;14508;50.924;11.600;2023-11-21T00:27:36;2.17;;;0.65;;
26953;SDS011;14508;50.924;11.600;2023-11-21T00:30:05;1.67;;;0.73;;
26953;SDS011;14508;50.924;11.600;2023-11-21T00:32:36;3.50;;;0.65;;
26953;SDS011;14508;50.924;11.600;2023-11-21T00:35:05;1.80;;;0.98;;
26953;SDS011;14508;50.924;11.600;2023-11-21T00:37:33;4.05;;;0.63;;
26953;SDS011;14508;50.924;11.600;2023-11-21T00:40:02;2.58;;;0.80;;
26953;SDS011;14508;50.924;11.600;2023-11-21T00:42:33;2.90;;;0.40;;
26953;SDS011;14508;50.924;11.600;2023-11-21T00:45:02;3.60;;;0.68;;
26953;SDS011;14508;50.924;11.600;2023-11-21T00:47:31;3.67;;;0.85;;
26953;SDS011;14508;50.924;11.600;2023-11-21T00:50:01;2.30;;;1.27;;
26953;SDS011;14508;50.924;11.600;2023-11-21T00:52:29;1.85;;;0.82;;
26953;SDS011;14508;50.924;11.600;2023-11-21T00:54:57;1.50;;;0.75;;
26953;SDS011;14508;50.924;11.600;2023-11-21T00:57:26;3.17;;;0.90;;
26953;SDS011;14508;50.924;11.600;2023-11-21T00:59:54;4.05;;;0.80;;
26953;SDS011;14508;50.924;11.600;2023-11-21T01:02:22;8.73;;;1.25;;
26953;SDS011;14508;50.924;11.600;2023-11-21T01:04:52;2.28;;;0.93;;
26953;SDS011;14508;50.924;11.600;2023-11-21T01:07:21;4.75;;;0.80;;
26953;SDS011;14508;50.924;11.600;2023-11-21T01:09:50;2.63;;;1.23;;
26953;SDS011;14508;50.924;11.600;2023-11-21T01:12:18;5.68;;;0.70;;
26953;SDS011;14508;50.924;11.600;2023-11-21T01:14:47;0.75;;;0.70;;
26953;SDS011;14508;50.924;11.600;2023-11-21T01:17:15;1.02;;;0.70;;
26953;SDS011;14508;50.924;11.600;2023-11-21T01:19:43;0.82;;;0.60;;
26953;SDS011;14508;50.924;11.600;2023-11-21T01:22:11;3.08;;;0.80;;
26953;SDS011;14508;50.924;11.600;2023-11-21T01:24:40;0.82;;;0.80;;
26953;SDS011;14508;50.924;11.600;2023-11-21T01:27:11;1.55;;;0.88;;
26953;SDS011;14508;50.924;11.600;2023-11-21T01:29:39;1.98;;;0.75;;
26953;SDS011;14508;50.924;11.600;2023-11-21T01:32:07;1.40;;;0.88;;
26953;SDS011;14508;50.924;11.600;2023-11-21T01:34:36;1.88;;;0.68;;
26953;SDS011;14508;50.924;11.600;2023-11-21T01:37:04;3.58;;;0.80;;
26953;SDS011;14508;50.924;11.600;2023-11-21T01:39:32;8.45;;;0.85;;
26953;SDS011;14508;50.924;11.600;2023-11-21T01:42:02;0.85;;;0.70;;
26953;SDS011;14508;50.924;11.600;2023-11-21T01:44:30;2.90;;;0.95;;
26953;SDS011;14508;50.924;11.600;2023-11-21T01:46:58;2.22;;;0.82;;
26953;SDS011;14508;50.924;11.600;2023-11-21T01:49:31;2.78;;;0.85;;
26953;SDS011;14508;50.924;11.600;2023-11-21T01:52:00;1.98;;;0.70;;
26953;SDS011;14508;50.924;11.600;2023-11-21T01:54:30;12.07;;;1.02;;
26953;SDS011;14508;50.924;11.600;2023-11-21T01:56:58;2.58;;;0.70;;
26953;SDS011;14508;50.924;11.600;2023-11-21T01:59:32;2.72;;;0.85;;
26953;SDS011;14508;50.924;11.600;2023-11-21T02:02:03;1.80;;;0.93;;
26953;SDS011;14508;50.924;11.600;2023-11-21T02:04:33;2.88;;;0.77;;
26953;SDS011;14508;50.924;11.600;2023-11-21T02:07:02;4.45;;;0.90;;
26953;SDS011;14508;50.924;11.600;2023-11-21T02:09:31;4.65;;;0.98;;
26953;SDS011;14508;50.924;11.600;2023-11-21T02:12:00;2.65;;;0.80;;
26953;SDS011;14508;50.924;11.600;2023-11-21T02:14:31;3.40;;;1.00;;
26953;SDS011;14508;50.924;11.600;2023-11-21T02:16:59;3.78;;;1.10;;
26953;SDS011;14508;50.924;11.600;2023-11-21T02:19:30;1.95;;;0.90;;
26953;SDS011;14508;50.924;11.600;2023-11-21T02:21:59;3.42;;;0.70;;
26953;SDS011;14508;50.924;11.600;2023-11-21T02:24:32;1.92;;;0.98;;
26953;SDS011;14508;50.924;11.600;2023-11-21T02:27:00;1.55;;;0.88;;
26953;SDS011;14508;50.924;11.600;2023-11-21T02:29:28;2.05;;;0.98;;
26953;SDS011;14508;50.924;11.600;2023-11-21T02:31:56;1.13;;;0.70;;
26953;SDS011;14508;50.924;11.600;2023-11-21T02:34:24;3.67;;;0.90;;
26953;SDS011;14508;50.924;11.600;2023-11-21T02:36:52;1.20;;;0.75;;
26953;SDS011;14508;50.924;11.600;2023-11-21T02:39:20;2.72;;;0.82;;
26953;SDS011;14508;50.924;11.600;2023-11-21T02:41:52;1.80;;;1.00;;
26953;SDS011;14508;50.924;11.600;2023-11-21T02:44:20;3.70;;;0.90;;
26953;SDS011;14508;50.924;11.600;2023-11-21T02:46:48;6.70;;;2.35;;
26953;SDS011;14508;50.924;11.600;2023-11-21T02:49:16;7.35;;;1.85;;
26953;SDS011;14508;50.924;11.600;2023-11-21T02:51:44;1.00;;;0.82;;
26953;SDS011;14508;50.924;11.600;2023-11-21T02:54:12;3.20;;;1.13;;
26953;SDS011;14508;50.924;11.600;2023-11-21T02:56:42;1.50;;;0.60;;
26953;SDS011;14508;50.924;11.600;2023-11-21T02:59:11;2.92;;;1.60;;
26953;SDS011;14508;50.924;11.600;2023-11-21T03:01:40;2.00;;;0.82;;
26953;SDS011;14508;50.924;11.600;2023-11-21T03:04:08;0.77;;;0.63;;
26953;SDS011;14508;50.924;11.600;2023-11-21T03:06:36;1.67;;;0.82;;
26953;SDS011;14508;50.924;11.600;2023-11-21T03:09:04;1.90;;;0.95;;
26953;SDS011;14508;50.924;11.600;2023-11-21T03:11:33;6.45;;;1.20;;
26953;SDS011;14508;50.924;11.600;2023-11-21T03:14:01;4.88;;;1.35;;
26953;SDS011;14508;50.924;11.600;2023-11-21T03:16:31;4.07;;;1.08;;
26953;SDS011;14508;50.924;11.600;2023-11-21T03:18:59;2.80;;;0.95;;
26953;SDS011;14508;50.924;11.600;2023-11-21T03:21:28;0.95;;;0.85;;
26953;SDS011;14508;50.924;11.600;2023-11-21T03:23:56;5.30;;;1.15;;
26953;SDS011;14508;50.924;11.600;2023-11-21T03:26:26;2.83;;;0.82;;
26953;SDS011;14508;50.924;11.600;2023-11-21T03:28:54;5.25;;;1.13;;
26953;SDS011;14508;50.924;11.600;2023-11-21T03:31:22;2.90;;;0.88;;
26953;SDS011;14508;50.924;11.600;2023-11-21T03:33:52;1.88;;;1.08;;
26953;SDS011;14508;50.924;11.600;2023-11-21T03:36:20;1.52;;;0.63;;
26953;SDS011;14508;50.924;11.600;2023-11-21T03:38:48;1.45;;;0.93;;
26953;SDS011;14508;50.924;11.600;2023-11-21T03:41:16;2.15;;;0.80;;
26953;SDS011;14508;50.924;11.600;2023-11-21T03:43:44;4.32;;;0.93;;
26953;SDS011;14508;50.924;11.600;2023-11-21T03:46:13;1.65;;;1.08;;
26953;SDS011;14508;50.924;11.600;2023-11-21T03:48:41;1.30;;;0.85;;
26953;SDS011;14508;50.924;11.600;2023-11-21T03:51:11;3.38;;;1.10;;
26953;SDS011;14508;50.924;11.600;2023-11-21T03:53:39;2.63;;;1.05;;
26953;SDS011;14508;50.924;11.600;2023-11-21T03:56:09;2.40;;;0.93;;
26953;SDS011;14508;50.924;11.600;2023-11-21T03:58:38;1.20;;;0.50;;
26953;SDS011;14508;50.924;11.600;2023-11-21T04:01:06;2.80;;;1.00;;
26953;SDS011;14508;50.924;11.600;2023-11-21T04:03:34;2.53;;;1.08;;
26953;SDS011;14508;50.924;11.600;2023-11-21T04:06:03;5.20;;;1.50;;
26953;SDS011;14508;50.924;11.600;2023-11-21T04:08:33;1.67;;;0.82;;
26953;SDS011;14508;50.924;11.600;2023-11-21T04:11:01;2.53;;;0.82;;
26953;SDS011;14508;50.924;11.600;2023-11-21T04:13:30;1.02;;;0.90;;
26953;SDS011;14508;50.924;11.600;2023-11-21T04:15:58;1.65;;;0.88;;
26953;SDS011;14508;50.924;11.600;2023-11-21T04:18:29;2.83;;;0.82;;
26953;SDS011;14508;50.924;11.600;2023-11-21T04:20:57;5.43;;;0.98;;
26953;SDS011;14508;50.924;11.600;2023-11-21T04:23:26;2.15;;;0.80;;
26953;SDS011;14508;50.924;11.600;2023-11-21T04:25:57;1.85;;;1.20;;
26953;SDS011;14508;50.924;11.600;2023-11-21T04:28:25;2.80;;;1.38;;
26953;SDS011;14508;50.924;11.600;2023-11-21T04:30:53;5.38;;;1.08;;
26953;SDS011;14508;50.924;11.600;2023-11-21T04:33:22;4.32;;;1.08;;
26953;SDS011;14508;50.924;11.600;2023-11-21T04:35:50;1.83;;;1.02;;
26953;SDS011;14508;50.924;11.600;2023-11-21T04:38:18;1.75;;;0.85;;
26953;SDS011;14508;50.924;11.600;2023-11-21T04:40:46;1.38;;;1.02;;
26953;SDS011;14508;50.924;11.600;2023-11-21T04:43:15;1.65;;;0.93;;
26953;SDS011;14508;50.924;11.600;2023-11-21T04:45:44;2.58;;;1.13;;
26953;SDS011;14508;50.924;11.600;2023-11-21T04:48:12;4.00;;;1.27;;
26953;SDS011;14508;50.924;11.600;2023-11-21T04:50:40;6.88;;;1.23;;
26953;SDS011;14508;50.924;11.600;2023-11-21T04:53:08;4.13;;;1.17;;
26953;SDS011;14508;50.924;11.600;2023-11-21T04:55:39;3.67;;;1.40;;
26953;SDS011;14508;50.924;11.600;2023-11-21T04:58:08;6.22;;;1.60;;
26953;SDS011;14508;50.924;11.600;2023-11-21T05:00:37;2.35;;;1.40;;
26953;SDS011;14508;50.924;11.600;2023-11-21T05:03:06;3.40;;;1.58;;
26953;SDS011;14508;50.924;11.600;2023-11-21T05:05:34;4.85;;;1.25;;
26953;SDS011;14508;50.924;11.600;2023-11-21T05:08:02;3.53;;;1.13;;
26953;SDS011;14508;50.924;11.600;2023-11-21T05:10:31;2.15;;;1.17;;
26953;SDS011;14508;50.924;11.600;2023-11-21T05:12:59;4.88;;;1.23;;
26953;SDS011;14508;50.924;11.600;2023-11-21T05:15:27;1.90;;;1.00;;
26953;SDS011;14508;50.924;11.600;2023-11-21T05:17:57;4.03;;;1.70;;
26953;SDS011;14508;50.924;11.600;2023-11-21T05:20:26;6.20;;;1.45;;
26953;SDS011;14508;50.924;11.600;2023-11-21T05:22:55;3.67;;;1.77;;
26953;SDS011;14508;50.924;11.600;2023-11-21T05:25:25;3.85;;;2.08;;
26953;SDS011;14508;50.924;11.600;2023-11-21T05:27:53;2.55;;;1.50;;
26953;SDS011;14508;50.924;11.600;2023-11-21T05:30:21;6.60;;;1.50;;
26953;SDS011;14508;50.924;11.600;2023-11-21T05:32:50;2.70;;;1.50;;
26953;SDS011;14508;50.924;11.600;2023-11-21T05:35:20;6.60;;;2.05;;
26953;SDS011;14508;50.924;11.600;2023-11-21T05:37:48;3.40;;;1.92;;
26953;SDS011;14508;50.924;11.600;2023-11-21T05:40:16;3.00;;;1.48;;
26953;SDS011;14508;50.924;11.600;2023-11-21T05:42:44;4.57;;;1.88;;
26953;SDS011;14508;50.924;11.600;2023-11-21T05:45:13;6.38;;;2.17;;
26953;SDS011;14508;50.924;11.600;2023-11-21T05:47:42;2.53;;;1.80;;
26953;SDS011;14508;50.924;11.600;2023-11-21T05:50:13;4.68;;;2.20;;
26953;SDS011;14508;50.924;11.600;2023-11-21T05:52:44;5.25;;;1.90;;
26953;SDS011;14508;50.924;11.600;2023-11-21T05:55:14;7.53;;;2.08;;
26953;SDS011;14508;50.924;11.600;2023-11-21T05:57:43;5.90;;;2.00;;
26953;SDS011;14508;50.924;11.600;2023-11-21T06:00:13;6.13;;;2.03;;
26953;SDS011;14508;50.924;11.600;2023-11-21T06:02:46;6.60;;;2.47;;
26953;SDS011;14508;50.924;11.600;2023-11-21T06:05:17;10.13;;;2.45;;
26953;SDS011;14508;50.924;11.600;2023-11-21T06:07:47;4.20;;;1.90;;
26953;SDS011;14508;50.924;11.600;2023-11-21T06:10:16;3.92;;;2.10;;
26953;SDS011;14508;50.924;11.600;2023-11-21T06:12:45;5.45;;;1.67;;
26953;SDS011;14508;50.924;11.600;2023-11-21T06:15:13;9.38;;;3.03;;
26953;SDS011;14508;50.924;11.600;2023-11-21T06:17:42;6.20;;;3.03;;
26953;SDS011;14508;50.924;11.600;2023-11-21T06:20:11;8.18;;;2.05;;
26953;SDS011;14508;50.924;11.600;2023-11-21T06:22:42;8.25;;;3.95;;
26953;SDS011;14508;50.924;11.600;2023-11-21T06:25:12;9.45;;;3.35;;
26953;SDS011;14508;50.924;11.600;2023-11-21T06:27:41;5.45;;;1.98;;
26953;SDS011;14508;50.924;11.600;2023-11-21T06:30:12;4.90;;;2.83;;
26953;SDS011;14508;50.924;11.600;2023-11-21T06:32:42;6.28;;;3.13;;
26953;SDS011;14508;50.924;11.600;2023-11-21T06:35:12;11.60;;;3.15;;
26953;SDS011;14508;50.924;11.600;2023-11-21T06:37:43;8.45;;;3.42;;
26953;SDS011;14508;50.924;11.600;2023-11-21T06:40:16;9.32;;;4.07;;
26953;SDS011;14508;50.924;11.600;2023-11-21T06:42:45;7.47;;;3.42;;
26953;SDS011;14508;50.924;11.600;2023-11-21T06:45:14;7.47;;;3.13;;
26953;SDS011;14508;50.924;11.600;2023-11-21T06:47:43;9.48;;;3.53;;
26953;SDS011;14508;50.924;11.600;2023-11-21T06:50:11;7.93;;;3.67;;
26953;SDS011;14508;50.924;11.600;2023-11-21T06:52:40;5.72;;;3.30;;
26953;SDS011;14508;50.924;11.600;2023-11-21T06:55:09;11.93;;;3.92;;
26953;SDS011;14508;50.924;11.600;2023-11-21T06:57:39;17.75;;;7.22;;
26953;SDS011;14508;50.924;11.600;2023-11-21T07:00:08;19.90;;;9.50;;
26953;SDS011;14508;50.924;11.600;2023-11-21T07:02:38;13.15;;;4.40;;
26953;SDS011;14508;50.924;11.600;2023-11-21T07:05:07;11.93;;;4.32;;
26953;SDS011;14508;50.924;11.600;2023-11-21T07:07:35;9.40;;;3.72;;
26953;SDS011;14508;50.924;11.600;2023-11-21T07:10:04;13.70;;;4.22;;
26953;SDS011;14508;50.924;11.600;2023-11-21T07:12:33;8.80;;;3.78;;
26953;SDS011;14508;50.924;11.600;2023-11-21T07:15:03;4.63;;;2.80;;
26953;SDS011;14508;50.924;11.600;2023-11-21T07:17:35;11.07;;;4.70;;
26953;SDS011;14508;50.924;11.600;2023-11-21T07:20:07;8.95;;;4.45;;
26953;SDS011;14508;50.924;11.600;2023-11-21T07:22:37;8.15;;;4.00;;
26953;SDS011;14508;50.924;11.600;2023-11-21T07:25:05;14.63;;;3.83;;
26953;SDS011;14508;50.924;11.600;2023-11-21T07:27:36;12.00;;;4.10;;
26953;SDS011;14508;50.924;11.600;2023-11-21T07:30:06;6.65;;;3.58;;
26953;SDS011;14508;50.924;11.600;2023-11-21T07:32:37;10.40;;;4.43;;
26953;SDS011;14508;50.924;11.600;2023-11-21T07:35:07;8.65;;;3.75;;
26953;SDS011;14508;50.924;11.600;2023-11-21T07:37:36;6.15;;;3.22;;
26953;SDS011;14508;50.924;11.600;2023-11-21T07:40:05;9.43;;;4.07;;
26953;SDS011;14508;50.924;11.600;2023-11-21T07:42:35;11.65;;;4.22;;
26953;SDS011;14508;50.924;11.600;2023-11-21T07:45:06;10.00;;;3.58;;
26953;SDS011;14508;50.924;11.600;2023-11-21T07:47:35;14.43;;;4.80;;
26953;SDS011;14508;50.924;11.600;2023-11-21T07:50:03;9.05;;;3.75;;
26953;SDS011;14508;50.924;11.600;2023-11-21T07:52:34;13.65;;;3.67;;
26953;SDS011;14508;50.924;11.600;2023-11-21T07:55:02;6.43;;;3.13;;
26953;SDS011;14508;50.924;11.600;2023-11-21T07:57:31;11.93;;;4.53;;
26953;SDS011;14508;50.924;11.600;2023-11-21T07:59:59;11.55;;;3.70;;
26953;SDS011;14508;50.924;11.600;2023-11-21T08:02:38;8.70;;;4.10;;
26953;SDS011;14508;50.924;11.600;2023-11-21T08:05:09;9.63;;;3.55;;
26953;SDS011;14508;50.924;11.600;2023-11-21T08:07:50;10.32;;;4.32;;
26953;SDS011;14508;50.924;11.600;2023-11-21T08:10:18;15.88;;;4.70;;
26953;SDS011;14508;50.924;11.600;2023-11-21T08:12:48;9.05;;;4.13;;
26953;SDS011;14508;50.924;11.600;2023-11-21T08:15:17;19.40;;;4.40;;
26953;SDS011;14508;50.924;11.600;2023-11-21T08:17:47;10.88;;;4.00;;
26953;SDS011;14508;50.924;11.600;2023-11-21T08:20:15;7.63;;;4.30;;
26953;SDS011;14508;50.924;11.600;2023-11-21T08:22:44;11.50;;;4.65;;
26953;SDS011;14508;50.924;11.600;2023-11-21T08:25:14;11.45;;;4.43;;
26953;SDS011;14508;50.924;11.600;2023-11-21T08:27:46;11.43;;;4.38;;
26953;SDS011;14508;50.924;11.600;2023-11-21T08:30:15;15.23;;;4.55;;
26953;SDS011;14508;50.924;11.600;2023-11-21T08:32:46;12.43;;;4.32;;
26953;SDS011;14508;50.924;11.600;2023-11-21T08:35:15;13.55;;;3.47;;
26953;SDS011;14508;50.924;11.600;2023-11-21T08:37:43;16.00;;;5.00;;
26953;SDS011;14508;50.924;11.600;2023-11-21T08:40:11;5.35;;;3.67;;
26953;SDS011;14508;50.924;11.600;2023-11-21T08:42:43;10.05;;;4.10;;
26953;SDS011;14508;50.924;11.600;2023-11-21T08:45:13;11.23;;;4.40;;
26953;SDS011;14508;50.924;11.600;2023-11-21T08:47:41;15.70;;;5.68;;
26953;SDS011;14508;50.924;11.600;2023-11-21T08:50:12;16.02;;;5.35;;
26953;SDS011;14508;50.924;11.600;2023-11-21T08:52:41;9.63;;;4.60;;
26953;SDS011;14508;50.924;11.600;2023-11-21T08:55:09;8.80;;;4.18;;
26953;SDS011;14508;50.924;11.600;2023-11-21T08:57:39;7.72;;;4.05;;
26953;SDS011;14508;50.924;11.600;2023-11-21T09:00:08;16.90;;;5.07;;
26953;SDS011;14508;50.924;11.600;2023-11-21T09:02:38;16.30;;;5.07;;
26953;SDS011;14508;50.924;11.600;2023-11-21T09:05:08;11.68;;;5.50;;
26953;SDS011;14508;50.924;11.600;2023-11-21T09:07:39;12.45;;;5.40;;
26953;SDS011;14508;50.924;11.600;2023-11-21T09:10:09;15.77;;;5.93;;
26953;SDS011;14508;50.924;11.600;2023-11-21T09:12:37;11.98;;;5.40;;
26953;SDS011;14508;50.924;11.600;2023-11-21T09:15:06;12.60;;;5.40;;
26953;SDS011;14508;50.924;11.600;2023-11-21T09:17:36;15.63;;;6.22;;
26953;SDS011;14508;50.924;11.600;2023-11-21T09:20:05;17.55;;;5.28;;
26953;SDS011;14508;50.924;11.600;2023-11-21T09:22:36;15.70;;;6.40;;
26953;SDS011;14508;50.924;11.600;2023-11-21T09:25:07;19.77;;;6.07;;
26953;SDS011;14508;50.924;11.600;2023-11-21T09:27:35;16.85;;;6.65;;
26953;SDS011;14508;50.924;11.600;2023-11-21T09:30:04;14.13;;;5.80;;
26953;SDS011;14508;50.924;11.600;2023-11-21T09:32:35;16.63;;;6.45;;
26953;SDS011;14508;50.924;11.600;2023-11-21T09:35:07;15.73;;;5.63;;
26953;SDS011;14508;50.924;11.600;2023-11-21T09:37:36;13.88;;;5.72;;
26953;SDS011;14508;50.924;11.600;2023-11-21T09:40:07;18.77;;;4.85;;
26953;SDS011;14508;50.924;11.600;2023-11-21T09:45:14;11.38;;;4.78;;
26953;SDS011;14508;50.924;11.600;2023-11-21T09:47:46;9.00;;;4.27;;
26953;SDS011;14508;50.924;11.600;2023-11-21T09:50:15;14.65;;;5.93;;
26953;SDS011;14508;50.924;11.600;2023-11-21T09:52:48;17.48;;;5.07;;
26953;SDS011;14508;50.924;11.600;2023-11-21T09:55:25;15.68;;;4.80;;
26953;SDS011;14508;50.924;11.600;2023-11-21T09:57:56;10.57;;;4.35;;
26953;SDS011;14508;50.924;11.600;2023-11-21T10:00:25;11.25;;;5.20;;
26953;SDS011;14508;50.924;11.600;2023-11-21T10:02:54;10.30;;;4.90;;
26953;SDS011;14508;50.924;11.600;2023-11-21T10:05:25;12.77;;;5.05;;
26953;SDS011;14508;50.924;11.600;2023-11-21T10:07:55;14.63;;;4.40;;
26953;SDS011;14508;50.924;11.600;2023-11-21T10:10:26;13.55;;;5.13;;
26953;SDS011;14508;50.924;11.600;2023-11-21T10:12:56;15.13;;;4.63;;
26953;SDS011;14508;50.924;11.600;2023-11-21T10:15:26;9.15;;;4.60;;
26953;SDS011;14508;50.924;11.600;2023-11-21T10:17:54;10.55;;;4.15;;
26953;SDS011;14508;50.924;11.600;2023-11-21T10:20:23;9.88;;;4.47;;
26953;SDS011;14508;50.924;11.600;2023-11-21T10:22:53;10.45;;;4.35;;
26953;SDS011;14508;50.924;11.600;2023-11-21T10:25:23;11.15;;;4.97;;
26953;SDS011;14508;50.924;11.600;2023-11-21T10:27:56;12.23;;;4.70;;
26953;SDS011;14508;50.924;11.600;2023-11-21T10:30:27;12.88;;;4.90;;
26953;SDS011;14508;50.924;11.600;2023-11-21T10:32:59;14.45;;;4.93;;
26953;SDS011;14508;50.924;11.600;2023-11-21T10:35:38;11.35;;;4.55;;
26953;SDS011;14508;50.924;11.600;2023-11-21T10:38:17;13.73;;;5.22;;
26953;SDS011;14508;50.924;11.600;2023-11-21T10:40:47;10.82;;;5.45;;
26953;SDS011;14508;50.924;11.600;2023-11-21T10:43:17;15.18;;;5.60;;
26953;SDS011;14508;50.924;11.600;2023-11-21T10:45:45;11.63;;;5.30;;
26953;SDS011;14508;50.924;11.600;2023-11-21T10:48:14;15.23;;;5.40;;
26953;SDS011;14508;50.924;11.600;2023-11-21T10:50:43;12.18;;;5.72;;
26953;SDS011;14508;50.924;11.600;2023-11-21T10:53:13;18.05;;;5.55;;
26953;SDS011;14508;50.924;11.600;2023-11-21T10:55:42;21.90;;;6.22;;
26953;SDS011;14508;50.924;11.600;2023-11-21T10:58:12;18.15;;;6.72;;
26953;SDS011;14508;50.924;11.600;2023-11-21T11:00:43;21.40;;;7.25;;
26953;SDS011;14508;50.924;11.600;2023-11-21T11:03:12;18.17;;;6.93;;
26953;SDS011;14508;50.924;11.600;2023-11-21T11:05:43;18.95;;;6.90;;
26953;SDS011;14508;50.924;11.600;2023-11-21T11:08:18;18.48;;;6.80;;
26953;SDS011;14508;50.924;11.600;2023-11-21T11:10:53;20.15;;;7.70;;
26953;SDS011;14508;50.924;11.600;2023-11-21T11:13:22;19.70;;;7.32;;
26953;SDS011;14508;50.924;11.600;2023-11-21T11:15:53;23.05;;;7.85;;
26953;SDS011;14508;50.924;11.600;2023-11-21T11:20:57;15.10;;;6.80;;
26953;SDS011;14508;50.924;11.600;2023-11-21T11:23:38;19.70;;;7.28;;
26953;SDS011;14508;50.924;11.600;2023-11-21T11:26:20;21.33;;;8.80;;
26953;SDS011;14508;50.924;11.600;2023-11-21T11:29:03;20.45;;;7.97;;
26953;SDS011;14508;50.924;11.600;2023-11-21T11:31:44;21.73;;;9.15;;
26953;SDS011;14508;50.924;11.600;2023-11-21T11:34:20;23.05;;;9.07;;
26953;SDS011;14508;50.924;11.600;2023-11-21T11:36:58;26.25;;;9.18;;
26953;SDS011;14508;50.924;11.600;2023-11-21T11:39:30;23.63;;;8.85;;
26953;SDS011;14508;50.924;11.600;2023-11-21T11:42:02;24.15;;;8.60;;
26953;SDS011;14508;50.924;11.600;2023-11-21T11:44:46;26.17;;;8.93;;
26953;SDS011;14508;50.924;11.600;2023-11-21T11:47:23;26.83;;;8.93;;
26953;SDS011;14508;50.924;11.600;2023-11-21T11:49:56;24.92;;;8.77;;
26953;SDS011;14508;50.924;11.600;2023-11-21T11:52:40;32.13;;;8.13;;
26953;SDS011;14508;50.924;11.600;2023-11-21T11:55:10;28.48;;;10.23;;
26953;SDS011;14508;50.924;11.600;2023-11-21T11:57:41;26.00;;;8.90;;
26953;SDS011;14508;50.924;11.600;2023-11-21T12:00:10;21.85;;;8.18;;
26953;SDS011;14508;50.924;11.600;2023-11-21T12:02:45;20.70;;;7.40;;
26953;SDS011;14508;50.924;11.600;2023-11-21T12:05:15;17.95;;;6.78;;
26953;SDS011;14508;50.924;11.600;2023-11-21T12:07:46;19.50;;;7.38;;
26953;SDS011;14508;50.924;11.600;2023-11-21T12:10:16;19.30;;;7.75;;
26953;SDS011;14508;50.924;11.600;2023-11-21T12:12:46;19.88;;;7.20;;
26953;SDS011;14508;50.924;11.600;2023-11-21T12:15:15;21.52;;;7.03;;
26953;SDS011;14508;50.924;11.600;2023-11-21T12:17:45;19.02;;;6.70;;
26953;SDS011;14508;50.924;11.600;2023-11-21T12:20:13;19.30;;;6.95;;
26953;SDS011;14508;50.924;11.600;2023-11-21T12:22:47;14.13;;;6.18;;
26953;SDS011;14508;50.924;11.600;2023-11-21T12:25:16;14.80;;;6.07;;
26953;SDS011;14508;50.924;11.600;2023-11-21T12:27:45;13.80;;;5.13;;
26953;SDS011;14508;50.924;11.600;2023-11-21T12:30:16;17.02;;;4.93;;
26953;SDS011;14508;50.924;11.600;2023-11-21T12:32:49;10.00;;;3.97;;
26953;SDS011;14508;50.924;11.600;2023-11-21T12:35:18;7.82;;;3.35;;
26953;SDS011;14508;50.924;11.600;2023-11-21T12:37:47;7.95;;;3.80;;
26953;SDS011;14508;50.924;11.600;2023-11-21T12:40:17;5.28;;;2.95;;
26953;SDS011;14508;50.924;11.600;2023-11-21T12:42:45;5.88;;;3.08;;
26953;SDS011;14508;50.924;11.600;2023-11-21T12:45:19;6.53;;;3.25;;
26953;SDS011;14508;50.924;11.600;2023-11-21T12:47:51;11.30;;;4.55;;
26953;SDS011;14508;50.924;11.600;2023-11-21T12:50:22;6.28;;;3.20;;
26953;SDS011;14508;50.924;11.600;2023-11-21T12:52:53;6.65;;;2.92;;
26953;SDS011;14508;50.924;11.600;2023-11-21T12:55:22;6.85;;;3.30;;
26953;SDS011;14508;50.924;11.600;2023-11-21T12:57:57;5.75;;;2.92;;
26953;SDS011;14508;50.924;11.600;2023-11-21T13:00:36;6.85;;;3.35;;
26953;SDS011;14508;50.924;11.600;2023-11-21T13:03:07;7.82;;;3.55;;
26953;SDS011;14508;50.924;11.600;2023-11-21T13:05:40;10.65;;;3.58;;
26953;SDS011;14508;50.924;11.600;2023-11-21T13:08:14;10.75;;;3.97;;
26953;SDS011;14508;50.924;11.600;2023-11-21T13:10:48;9.63;;;4.10;;
26953;SDS011;14508;50.924;11.600;2023-11-21T13:13:18;10.70;;;4.28;;
26953;SDS011;14508;50.924;11.600;2023-11-21T13:15:51;14.27;;;6.07;;
26953;SDS011;14508;50.924;11.600;2023-11-21T13:18:23;20.40;;;6.88;;
26953;SDS011;14508;50.924;11.600;2023-11-21T13:20:53;22.05;;;7.68;;
26953;SDS011;14508;50.924;11.600;2023-11-21T13:23:23;21.88;;;8.05;;
26953;SDS011;14508;50.924;11.600;2023-11-21T13:25:52;21.88;;;8.40;;
26953;SDS011;14508;50.924;11.600;2023-11-21T13:28:30;18.35;;;7.55;;
26953;SDS011;14508;50.924;11.600;2023-11-21T13:31:00;17.85;;;6.78;;
26953;SDS011;14508;50.924;11.600;2023-11-21T13:33:38;24.13;;;9.10;;
26953;SDS011;14508;50.924;11.600;2023-11-21T13:36:09;20.98;;;9.25;;
26953;SDS011;14508;50.924;11.600;2023-11-21T13:38:40;19.10;;;8.07;;
26953;SDS011;14508;50.924;11.600;2023-11-21T13:41:10;27.75;;;8.30;;
26953;SDS011;14508;50.924;11.600;2023-11-21T13:43:40;18.45;;;7.95;;
26953;SDS011;14508;50.924;11.600;2023-11-21T13:46:12;22.02;;;9.45;;
26953;SDS011;14508;50.924;11.600;2023-11-21T13:48:45;22.88;;;10.48;;
26953;SDS011;14508;50.924;11.600;2023-11-21T13:51:17;26.02;;;9.27;;
26953;SDS011;14508;50.924;11.600;2023-11-21T13:53:47;27.67;;;9.70;;
26953;SDS011;14508;50.924;11.600;2023-11-21T13:56:17;25.83;;;9.68;;
26953;SDS011;14508;50.924;11.600;2023-11-21T13:58:51;20.27;;;9.05;;
26953;SDS011;14508;50.924;11.600;2023-11-21T14:01:22;25.27;;;9.45;;
26953;SDS011;14508;50.924;11.600;2023-11-21T14:04:24;22.92;;;8.75;;
26953;SDS011;14508;50.924;11.600;2023-11-21T14:07:19;19.30;;;7.95;;
26953;SDS011;14508;50.924;11.600;2023-11-21T14:09:54;21.85;;;10.00;;
26953;SDS011;14508;50.924;11.600;2023-11-21T14:12:22;19.20;;;7.88;;
26953;SDS011;14508;50.924;11.600;2023-11-21T14:14:50;17.58;;;7.97;;
26953;SDS011;14508;50.924;11.600;2023-11-21T14:17:18;19.17;;;8.13;;
26953;SDS011;14508;50.924;11.600;2023-11-21T14:19:50;20.80;;;7.95;;
26953;SDS011;14508;50.924;11.600;2023-11-21T14:22:18;22.80;;;7.70;;
26953;SDS011;14508;50.924;11.600;2023-11-21T14:24:47;25.10;;;8.48;;
26953;SDS011;14508;50.924;11.600;2023-11-21T14:27:16;20.67;;;8.48;;
26953;SDS011;14508;50.924;11.600;2023-11-21T14:29:44;17.33;;;6.57;;
26953;SDS011;14508;50.924;11.600;2023-11-21T14:32:13;26.73;;;10.07;;
26953;SDS011;14508;50.924;11.600;2023-11-21T14:34:42;24.98;;;9.55;;
26953;SDS011;14508;50.924;11.600;2023-11-21T14:37:15;36.15;;;13.90;;
26953;SDS011;14508;50.924;11.600;2023-11-21T14:39:43;53.33;;;18.55;;
26953;SDS011;14508;50.924;11.600;2023-11-21T14:42:15;52.67;;;22.02;;
26953;SDS011;14508;50.924;11.600;2023-11-21T14:44:50;26.85;;;11.27;;
26953;SDS011;14508;50.924;11.600;2023-11-21T14:47:18;24.40;;;9.70;;
26953;SDS011;14508;50.924;11.600;2023-11-21T14:49:51;23.80;;;10.63;;